Terminal Aerodrome Forecast
Issued by NWS

Home | Current Version | Previous Version | Text Only | Print | Product List | Glossary On
Versions: 1 2 3 4 5 6 7 8 9 10 11 12 13
000
FTUS42 TJSJ 242300 RRA
TAFKPK
TAF
TKPK 242343Z 2500/2524 07006KT P6SM FEW019
     FM251300 11012KT P6SM SCT021
     FM252300 07006KT P6SM FEW022
      AMD NOT SKED 2502/2512=

USA.gov is the U.S. government's official web portal to all federal, state and local government web resources and services.